createdAt,value
2022-10-06T00:01:45.383Z,7.60
2022-10-06T00:04:35.401Z,8.20
2022-10-06T00:07:25.651Z,7.00
2022-10-06T00:10:15.828Z,7.70
2022-10-06T00:13:05.858Z,9.50
2022-10-06T00:15:56.323Z,7.30
2022-10-06T00:18:46.926Z,7.60
2022-10-06T00:21:37.011Z,7.20
2022-10-06T00:24:27.269Z,6.80
2022-10-06T00:27:17.511Z,7.90
2022-10-06T00:30:11.263Z,7.80
2022-10-06T00:33:02.442Z,7.00
2022-10-06T00:35:58.020Z,7.50
2022-10-06T00:38:49.706Z,7.50
2022-10-06T00:41:41.082Z,6.90
2022-10-06T00:44:31.630Z,7.30
2022-10-06T00:47:22.876Z,7.40
2022-10-06T00:50:13.321Z,7.40
2022-10-06T00:53:03.627Z,7.50
2022-10-06T00:55:54.895Z,7.00
2022-10-06T00:58:44.990Z,7.10
2022-10-06T01:01:35.319Z,7.50
2022-10-06T01:04:25.383Z,6.90
2022-10-06T01:07:15.520Z,7.30
2022-10-06T01:10:07.955Z,7.30
2022-10-06T01:12:59.618Z,6.90
2022-10-06T01:15:53.759Z,6.80
2022-10-06T01:18:44.444Z,7.00
2022-10-06T01:21:37.402Z,7.50
2022-10-06T01:24:28.206Z,7.30
2022-10-06T01:27:18.400Z,7.30
2022-10-06T01:30:13.204Z,6.40
2022-10-06T01:33:03.846Z,7.80
2022-10-06T01:35:55.295Z,7.00
2022-10-06T01:38:47.476Z,7.00
2022-10-06T01:41:39.534Z,7.00
2022-10-06T01:44:30.927Z,6.90
2022-10-06T01:47:21.352Z,7.00
2022-10-06T01:50:11.739Z,6.90
2022-10-06T01:53:01.982Z,7.20
2022-10-06T01:55:58.797Z,6.70
2022-10-06T01:58:50.475Z,6.90
2022-10-06T02:01:41.185Z,7.50
2022-10-06T02:04:32.077Z,5.90
2022-10-06T02:07:22.626Z,7.20
2022-10-06T02:10:12.700Z,7.30
2022-10-06T02:13:02.980Z,7.40
2022-10-06T02:15:58.137Z,6.50
2022-10-06T02:18:49.834Z,6.90
2022-10-06T02:21:41.119Z,6.70
2022-10-06T02:24:33.647Z,5.90
2022-10-06T02:27:23.848Z,6.20
2022-10-06T02:30:15.353Z,6.50
2022-10-06T02:33:07.195Z,6.90
2022-10-06T02:35:57.749Z,7.20
2022-10-06T02:38:49.103Z,6.80
2022-10-06T02:41:39.885Z,6.60
2022-10-06T02:44:31.436Z,6.30
2022-10-06T02:47:22.231Z,6.50
2022-10-06T02:50:13.240Z,6.80
2022-10-06T02:53:06.329Z,6.30
2022-10-06T02:56:00.645Z,6.10
2022-10-06T02:58:51.191Z,5.90
2022-10-06T03:01:48.822Z,7.00
2022-10-06T03:04:39.453Z,6.70
2022-10-06T03:07:29.475Z,6.70
2022-10-06T03:10:21.160Z,5.50
2022-10-06T03:13:11.301Z,6.50
2022-10-06T03:16:02.806Z,6.20
2022-10-06T03:18:54.999Z,6.20
2022-10-06T03:21:44.997Z,6.40
2022-10-06T03:24:37.128Z,6.40
2022-10-06T03:27:27.492Z,6.50
2022-10-06T03:30:21.930Z,6.10
2022-10-06T03:33:12.282Z,6.60
2022-10-06T03:36:04.096Z,6.40
2022-10-06T03:38:54.309Z,5.80
2022-10-06T03:41:44.565Z,6.90
2022-10-06T03:44:35.296Z,6.30
2022-10-06T03:47:25.849Z,7.00
2022-10-06T03:50:16.994Z,6.80
2022-10-06T03:53:08.500Z,5.80
2022-10-06T03:56:03.356Z,6.70
2022-10-06T03:58:55.618Z,6.70
2022-10-06T04:01:47.437Z,6.20
2022-10-06T04:04:47.920Z,6.20
2022-10-06T04:07:38.117Z,6.40
2022-10-06T04:10:28.292Z,6.40
2022-10-06T04:13:19.474Z,6.10
2022-10-06T04:16:15.224Z,6.00
2022-10-06T04:19:09.441Z,7.40
2022-10-06T04:24:52.478Z,6.30
2022-10-06T04:27:42.720Z,6.00
2022-10-06T04:30:36.319Z,7.20
2022-10-06T04:33:27.227Z,6.10
2022-10-06T04:36:22.139Z,7.00
2022-10-06T04:39:13.299Z,6.40
2022-10-06T04:42:07.273Z,6.80
2022-10-06T04:44:57.930Z,6.60
2022-10-06T04:47:50.478Z,7.20
2022-10-06T04:50:41.284Z,7.40
2022-10-06T04:53:34.459Z,6.60
2022-10-06T04:56:26.034Z,6.80
2022-10-06T04:59:16.794Z,7.50
2022-10-06T05:02:08.340Z,7.10
2022-10-06T05:04:59.245Z,6.30
2022-10-06T05:07:49.348Z,6.50
2022-10-06T05:10:41.613Z,6.90
2022-10-06T05:13:32.431Z,6.50
2022-10-06T05:16:24.429Z,7.40
2022-10-06T05:19:14.974Z,7.60
2022-10-06T05:22:05.557Z,6.50
2022-10-06T05:24:56.317Z,8.30
2022-10-06T05:27:47.086Z,8.30
2022-10-06T05:30:37.149Z,8.70
2022-10-06T05:33:28.227Z,9.00
2022-10-06T05:36:19.709Z,10.40
2022-10-06T05:39:10.550Z,8.80
2022-10-06T05:42:11.517Z,8.60
2022-10-06T05:45:01.904Z,8.10
2022-10-06T05:47:53.856Z,9.60
2022-10-06T05:50:44.476Z,8.80
2022-10-06T05:53:36.410Z,7.80
2022-10-06T05:56:28.206Z,8.90
2022-10-06T05:59:18.425Z,9.10
2022-10-06T06:02:09.953Z,9.00
2022-10-06T06:05:03.861Z,9.60
2022-10-06T06:07:54.060Z,9.50
2022-10-06T06:10:44.408Z,9.50
2022-10-06T06:13:34.864Z,7.70
2022-10-06T06:16:39.673Z,9.00
2022-10-06T06:19:29.829Z,9.10
2022-10-06T06:22:19.823Z,10.20
2022-10-06T06:25:13.143Z,9.90
2022-10-06T06:28:06.660Z,9.40
2022-10-06T06:31:06.597Z,9.20
2022-10-06T06:33:57.965Z,10.20
2022-10-06T06:36:54.475Z,8.90
2022-10-06T06:39:44.684Z,8.30
2022-10-06T06:42:35.899Z,11.90
2022-10-06T06:45:43.572Z,8.60
2022-10-06T06:48:46.690Z,9.40
2022-10-06T06:51:39.665Z,9.60
2022-10-06T06:54:30.158Z,11.80
2022-10-06T06:57:26.219Z,9.60
2022-10-06T07:00:19.018Z,9.60
2022-10-06T07:03:14.326Z,9.90
2022-10-06T07:06:08.855Z,10.10
2022-10-06T07:09:00.277Z,9.90
2022-10-06T07:11:51.039Z,10.00
2022-10-06T07:14:57.955Z,8.50
2022-10-06T07:18:06.874Z,9.80
2022-10-06T07:21:15.563Z,9.90
2022-10-06T07:24:24.258Z,9.90
2022-10-06T07:27:15.026Z,9.10
2022-10-06T07:30:10.257Z,8.50
2022-10-06T07:33:01.371Z,10.10
2022-10-06T07:35:52.520Z,8.60
2022-10-06T07:38:47.478Z,9.50
2022-10-06T07:41:38.976Z,7.90
2022-10-06T07:44:29.870Z,8.90
2022-10-06T07:47:20.214Z,7.90
2022-10-06T07:50:17.869Z,8.80
2022-10-06T07:53:08.640Z,9.50
2022-10-06T07:56:06.579Z,8.40
2022-10-06T07:59:05.958Z,7.40
2022-10-06T08:01:56.422Z,9.20
2022-10-06T08:04:47.024Z,7.80
2022-10-06T08:07:37.754Z,8.30
2022-10-06T08:10:28.125Z,8.90
2022-10-06T08:13:18.616Z,7.60
2022-10-06T08:16:12.174Z,9.30
2022-10-06T08:19:02.468Z,8.50
2022-10-06T08:21:52.768Z,9.60
2022-10-06T08:25:04.894Z,8.80
2022-10-06T08:27:55.426Z,7.90
2022-10-06T08:30:46.282Z,8.20
2022-10-06T08:33:37.839Z,8.40
2022-10-06T08:36:31.887Z,9.30
2022-10-06T08:39:23.217Z,8.30
2022-10-06T08:42:18.565Z,7.80
2022-10-06T08:45:14.733Z,8.80
2022-10-06T08:51:04.427Z,8.40
2022-10-06T08:54:04.220Z,8.30
2022-10-06T08:57:02.117Z,9.00
2022-10-06T08:59:53.571Z,8.20
2022-10-06T09:02:46.491Z,8.70
2022-10-06T09:05:37.974Z,8.70
2022-10-06T09:08:52.117Z,7.40
2022-10-06T09:12:02.865Z,9.00
2022-10-06T09:14:58.102Z,8.40
2022-10-06T09:18:18.000Z,12.00
2022-10-06T09:21:18.578Z,11.70
2022-10-06T09:28:30.656Z,6.90
2022-10-06T09:31:27.151Z,8.60
2022-10-06T09:34:39.271Z,8.20
2022-10-06T09:37:30.232Z,8.20
2022-10-06T09:40:38.787Z,6.90
2022-10-06T09:43:30.692Z,9.40
2022-10-06T09:46:33.865Z,8.80
2022-10-06T09:49:25.408Z,6.70
2022-10-06T09:52:16.853Z,5.60
2022-10-06T09:55:38.110Z,5.90
2022-10-06T09:59:05.191Z,7.40
2022-10-06T10:02:21.671Z,7.10
2022-10-06T10:05:40.834Z,7.60
2022-10-06T10:08:47.820Z,7.40
2022-10-06T10:12:01.254Z,5.70
2022-10-06T10:15:33.949Z,7.00
2022-10-06T10:18:52.206Z,5.00
2022-10-06T10:26:27.264Z,4.90
2022-10-06T10:36:47.770Z,5.70
2022-10-06T10:39:49.745Z,4.80
2022-10-06T10:43:21.889Z,9.60
2022-10-06T10:46:44.287Z,6.90
2022-10-06T10:49:38.879Z,6.20
2022-10-06T10:53:01.377Z,5.60
2022-10-06T10:55:52.821Z,8.40
2022-10-06T10:58:52.366Z,8.80
2022-10-06T11:01:45.743Z,10.90
2022-10-06T11:04:40.487Z,8.20
2022-10-06T11:07:50.246Z,7.00
2022-10-06T11:10:49.872Z,8.80
2022-10-06T11:14:01.341Z,8.40
2022-10-06T11:17:00.940Z,7.00
2022-10-06T11:20:15.816Z,8.60
2022-10-06T11:23:44.188Z,7.50
2022-10-06T11:26:51.267Z,7.30
2022-10-06T11:29:53.928Z,6.40
2022-10-06T11:33:03.931Z,6.60
2022-10-06T11:36:02.103Z,9.20
2022-10-06T11:39:01.559Z,6.90
2022-10-06T11:42:08.903Z,5.50
2022-10-06T11:45:26.906Z,5.70
2022-10-06T11:52:58.704Z,5.60
2022-10-06T12:00:59.113Z,7.30
2022-10-06T12:05:54.713Z,6.40
2022-10-06T12:09:04.135Z,5.90
2022-10-06T12:14:18.823Z,6.60
2022-10-06T12:19:37.976Z,6.80
2022-10-06T12:22:30.958Z,6.20
2022-10-06T12:25:26.272Z,5.50
2022-10-06T12:28:27.128Z,5.90
2022-10-06T12:31:40.763Z,4.80
2022-10-06T12:34:55.124Z,5.90
2022-10-06T12:37:51.519Z,6.00
2022-10-06T12:40:54.034Z,4.90
2022-10-06T12:43:57.988Z,6.10
2022-10-06T12:46:50.571Z,5.50
2022-10-06T12:49:53.381Z,7.10
2022-10-06T12:52:49.541Z,6.30
2022-10-06T12:58:35.388Z,5.60
2022-10-06T13:01:26.167Z,4.90
2022-10-06T13:04:35.423Z,6.40
2022-10-06T13:07:28.322Z,5.70
2022-10-06T13:10:21.567Z,5.60
2022-10-06T13:13:30.323Z,5.40
2022-10-06T13:16:29.244Z,7.10
2022-10-06T13:19:24.806Z,5.50
2022-10-06T13:22:19.950Z,6.30
2022-10-06T13:25:17.725Z,6.20
2022-10-06T13:28:22.949Z,5.20
2022-10-06T13:31:20.043Z,6.10
2022-10-06T13:34:13.900Z,5.80
2022-10-06T13:37:19.169Z,5.70
2022-10-06T13:40:43.968Z,5.60
2022-10-06T13:43:41.148Z,6.00
2022-10-06T13:46:32.488Z,5.60
2022-10-06T13:49:32.015Z,4.70
2022-10-06T13:59:45.340Z,5.00
2022-10-06T14:02:38.750Z,5.40
2022-10-06T14:05:31.672Z,5.50
2022-10-06T14:08:29.327Z,4.90
2022-10-06T14:14:17.394Z,5.80
2022-10-06T14:17:29.155Z,5.70
2022-10-06T14:20:42.875Z,5.20
2022-10-06T14:23:49.653Z,5.80
2022-10-06T14:26:40.121Z,5.80
2022-10-06T14:29:31.606Z,4.90
2022-10-06T14:32:31.622Z,4.80
2022-10-06T14:35:24.354Z,5.70
2022-10-06T14:38:15.195Z,4.50
2022-10-06T14:41:06.159Z,5.00
2022-10-06T14:44:05.463Z,5.80
2022-10-06T14:47:09.076Z,3.80
2022-10-06T14:50:15.726Z,4.30
2022-10-06T14:53:23.425Z,5.60
2022-10-06T14:56:17.552Z,4.70
2022-10-06T14:59:13.991Z,5.20
2022-10-06T15:02:45.777Z,5.10
2022-10-06T15:06:25.480Z,4.90
2022-10-06T15:09:20.161Z,4.10
2022-10-06T15:12:10.416Z,5.40
2022-10-06T15:15:04.062Z,5.10
2022-10-06T15:18:02.090Z,4.80
2022-10-06T15:20:53.756Z,4.50
2022-10-06T15:23:47.571Z,5.70
2022-10-06T15:26:56.357Z,5.40
2022-10-06T15:29:47.443Z,5.40
2022-10-06T15:32:37.904Z,5.60
2022-10-06T15:35:28.216Z,5.50
2022-10-06T15:38:18.946Z,6.00
2022-10-06T15:41:11.884Z,7.20
2022-10-06T15:44:02.729Z,8.80
2022-10-06T15:46:53.864Z,9.10
2022-10-06T15:49:46.395Z,9.60
2022-10-06T15:52:39.761Z,10.30
2022-10-06T15:55:30.633Z,11.20
2022-10-06T15:58:22.154Z,11.00
2022-10-06T16:01:34.569Z,14.10
2022-10-06T16:04:33.121Z,15.20
2022-10-06T16:07:23.387Z,14.80
2022-10-06T16:10:13.730Z,12.90
2022-10-06T16:13:05.059Z,13.40
2022-10-06T16:15:56.174Z,12.60
2022-10-06T16:18:46.457Z,10.10
2022-10-06T16:21:36.706Z,10.20
2022-10-06T16:24:27.157Z,9.50
2022-10-06T16:27:23.532Z,15.10
2022-10-06T16:30:14.547Z,17.40
2022-10-06T16:36:57.202Z,21.50
2022-10-06T16:39:59.378Z,19.70
2022-10-06T16:42:49.868Z,17.20
2022-10-06T16:45:40.520Z,16.60
2022-10-06T16:48:31.983Z,17.40
2022-10-06T16:51:24.229Z,14.30
2022-10-06T16:54:21.439Z,14.80
2022-10-06T16:57:13.329Z,12.80
2022-10-06T17:00:11.723Z,12.20
2022-10-06T17:03:03.606Z,15.30
2022-10-06T17:05:54.038Z,15.90
2022-10-06T17:08:44.768Z,19.30
2022-10-06T17:11:35.885Z,23.40
2022-10-06T17:14:26.315Z,25.60
2022-10-06T17:17:17.873Z,22.00
2022-10-06T17:20:09.875Z,20.70
2022-10-06T17:23:00.421Z,26.30
2022-10-06T17:26:11.307Z,30.30
2022-10-06T17:29:08.825Z,27.00
2022-10-06T17:32:05.079Z,24.70
2022-10-06T17:34:57.325Z,25.40
2022-10-06T17:37:49.751Z,23.50
2022-10-06T17:40:45.712Z,22.80
2022-10-06T17:43:41.350Z,21.30
2022-10-06T17:46:34.019Z,21.30
2022-10-06T17:49:24.953Z,20.90
2022-10-06T17:52:23.334Z,21.10
2022-10-06T17:55:17.417Z,20.10
2022-10-06T17:58:08.004Z,19.70
2022-10-06T18:01:00.791Z,23.30
2022-10-06T18:03:54.877Z,19.60
2022-10-06T18:06:46.449Z,19.50
2022-10-06T18:09:38.435Z,18.80
2022-10-06T18:12:46.094Z,18.60
2022-10-06T18:15:39.690Z,18.10
2022-10-06T18:18:30.818Z,19.70
2022-10-06T18:21:25.521Z,17.40
2022-10-06T18:24:27.048Z,18.00
2022-10-06T18:27:29.575Z,18.20
2022-10-06T18:30:26.954Z,18.50
2022-10-06T18:36:37.471Z,17.90
2022-10-06T18:39:32.309Z,16.80
2022-10-06T18:42:36.516Z,16.70
2022-10-06T18:50:48.374Z,16.00
2022-10-06T18:54:16.586Z,16.10
2022-10-06T18:57:18.241Z,17.70
2022-10-06T19:00:31.640Z,17.80
2022-10-06T19:03:33.600Z,18.40
2022-10-06T19:06:31.880Z,18.10
2022-10-06T19:09:27.188Z,20.00
2022-10-06T19:12:17.590Z,21.80
2022-10-06T19:15:10.724Z,23.90
2022-10-06T19:18:01.120Z,25.60
2022-10-06T19:20:55.557Z,28.90
2022-10-06T19:23:46.381Z,32.10
2022-10-06T19:26:37.065Z,31.70
2022-10-06T19:29:28.886Z,35.00
2022-10-06T19:32:40.347Z,37.40
2022-10-06T19:36:00.743Z,32.90
2022-10-06T19:38:53.614Z,31.90
2022-10-06T19:42:07.619Z,31.50
2022-10-06T20:15:24.113Z,25.80
2022-10-06T20:18:18.389Z,23.40
2022-10-06T20:21:17.257Z,23.00
2022-10-06T20:24:10.954Z,24.30
2022-10-06T20:27:01.529Z,24.80
2022-10-06T20:29:53.417Z,23.90
2022-10-06T20:32:51.029Z,22.90
2022-10-06T20:35:45.373Z,21.60
2022-10-06T20:38:56.818Z,21.00
2022-10-06T20:41:47.828Z,21.20
2022-10-06T20:44:43.491Z,20.40
2022-10-06T20:47:33.789Z,20.50
2022-10-06T20:50:24.153Z,20.40
2022-10-06T20:53:16.144Z,18.60
2022-10-06T20:56:07.020Z,20.20
2022-10-06T20:58:57.504Z,18.30
2022-10-06T21:01:47.981Z,19.60
2022-10-06T21:04:40.093Z,19.60
2022-10-06T21:07:30.092Z,21.20
2022-10-06T21:10:20.213Z,19.60
2022-10-06T21:13:10.270Z,20.40
2022-10-06T21:16:00.383Z,21.40
2022-10-06T21:18:50.591Z,21.60
2022-10-06T21:21:41.906Z,19.60
2022-10-06T21:24:31.976Z,23.30
2022-10-06T21:27:22.376Z,21.00
2022-10-06T21:30:14.783Z,19.80
2022-10-06T21:33:05.279Z,21.10
2022-10-06T21:36:00.655Z,21.40
2022-10-06T21:38:54.415Z,21.40
2022-10-06T21:41:44.528Z,20.60
2022-10-06T21:44:34.813Z,21.30
2022-10-06T21:47:24.958Z,21.70
2022-10-06T21:50:15.634Z,20.20
2022-10-06T21:53:06.008Z,19.60
2022-10-06T21:55:56.483Z,19.20
2022-10-06T21:58:52.407Z,18.90
2022-10-06T22:01:44.275Z,18.70
2022-10-06T22:04:34.829Z,20.40
2022-10-06T22:07:24.826Z,21.40
2022-10-06T22:10:15.180Z,19.40
2022-10-06T22:13:05.213Z,20.00
2022-10-06T22:15:55.419Z,19.70
2022-10-06T22:18:45.841Z,19.20
2022-10-06T22:21:36.972Z,20.40
2022-10-06T22:24:28.073Z,18.10
2022-10-06T22:27:18.595Z,19.50
2022-10-06T22:30:11.960Z,19.20
2022-10-06T22:33:02.414Z,17.60
2022-10-06T22:35:52.457Z,18.40
2022-10-06T22:38:43.019Z,18.70
2022-10-06T22:41:33.319Z,19.00
2022-10-06T22:44:23.653Z,19.30
2022-10-06T22:47:13.950Z,18.30
2022-10-06T22:50:05.529Z,16.90
2022-10-06T22:52:55.571Z,19.40
2022-10-06T22:55:46.039Z,18.70
2022-10-06T22:58:38.266Z,18.60
2022-10-06T23:01:28.453Z,18.20
2022-10-06T23:04:19.366Z,17.40
2022-10-06T23:07:09.796Z,18.20
2022-10-06T23:10:00.958Z,16.50
2022-10-06T23:12:53.742Z,16.80
2022-10-06T23:15:43.976Z,16.40
2022-10-06T23:18:36.282Z,17.50
2022-10-06T23:21:27.415Z,17.80
2022-10-06T23:24:18.289Z,16.40
2022-10-06T23:27:09.689Z,18.00
2022-10-06T23:29:59.786Z,16.90
2022-10-06T23:32:50.484Z,17.30
2022-10-06T23:35:40.538Z,14.90
2022-10-06T23:38:31.269Z,17.00
2022-10-06T23:41:22.291Z,16.40
2022-10-06T23:44:12.606Z,17.40
2022-10-06T23:47:02.680Z,16.40
2022-10-06T23:49:53.627Z,16.10
2022-10-06T23:52:43.642Z,16.60
2022-10-06T23:55:33.559Z,16.80
2022-10-06T23:58:23.914Z,16.00
